タンクレド・ネヴェス国際空港の過去48時間の天気

タンクレド・ネヴェス国際空港 (Belo Horizonte)

現在時刻: 9/28 05:58 -03 (9/28 08:58 UTC) 以下の時間は現地時間です。

過去48時間のMETAR気象情報
時間 風向 風速(m/s) 視程 気温(℃) 湿度(%) 気圧(hPa) 天気現象
28 05:00 静穏 0 10km以上 19 68 1015
28 04:00 静穏 0 10km以上 19 60 1015
28 03:00 北西 1 10km以上 21 49 1018
28 02:00 静穏 0 10km以上 22 46 1018
28 01:00 静穏 0 10km以上 23 47 1017
28 00:00 西北西 1 10km以上 23 47 1017
27 23:00 静穏 0 10km以上 24 44 1017
27 22:00 東北東 4 10km以上 25 39 1017
27 21:00 静穏 0 10km以上 27 34 1017
27 20:00 東南東 1 10km以上 29 29 1016
27 19:00 東北東 1 10km以上 29 31 1016
27 18:00 北北東 2 10km以上 31 27 1015
27 17:00 南東 3 10km以上 32 26 1014
27 16:00 南南東 2 10km以上 33 24 1014
27 15:00 西 3 10km以上 33 24 1014
27 14:00 東北東 2 10km以上 33 26 1015
27 13:00 西 4 10km以上 32 28 1016
27 12:00 西 3 10km以上 31 29 1018
27 11:00 北北東 4 10km以上 27 42 1019
27 10:00 北東 3 10km以上 26 45 1018
27 09:00 北北東 4 10km以上 24 50 1018
27 08:00 南南東 1 10km以上 20 60 1017
27 07:00 南南東 1 10km以上 18 73 1017
27 06:00 南東 1 10km以上 17 72 1017
27 05:00 南東 2 10km以上 18 68 1016
27 04:00 1 10km以上 18 68 1016
27 03:00 北東 2 10km以上 20 60 1017
27 02:00 東北東 2 10km以上 20 60 1017
27 01:00 東北東 2 10km以上 20 60 1017
27 00:00 東南東 2 10km以上 20 60 1018
26 23:00 南東 2 10km以上 21 56 1018
26 22:00 東北東 4 10km以上 23 47 1018
26 21:00 北北東 5 10km以上 24 44 1017
26 20:00 北北東 5 10km以上 24 44 1017
26 19:00 北北東 5 10km以上 25 44 1016
26 18:00 東北東 4 10km以上 27 39 1016
26 17:00 東北東 5 10km以上 29 33 1015
26 16:00 東北東 3 10km以上 30 31 1015
26 15:00 南東 1 10km以上 30 29 1016
26 14:00 2 10km以上 31 29 1017
26 13:00 南南東 3 10km以上 30 31 1018
26 12:00 北西 2 10km以上 28 35 1019
26 11:00 北東 2 10km以上 27 39 1020
26 10:00 北東 4 10km以上 25 44 1021
26 09:00 北東 4 10km以上 23 53 1021
26 08:00 南南東 2 10km以上 20 68 1021
26 07:00 東南東 2 10km以上 17 77 1019
26 06:00 東南東 1 10km以上 16 82 1019
SBCF 280800Z 00000KT CAVOK 19/13 Q1015
SBCF 280700Z 00000KT CAVOK 19/11 Q1015
SBCF 280600Z 32002KT CAVOK 21/10 Q1018
SBCF 280500Z 00000KT CAVOK 22/10 Q1018
SBCF 280400Z 00000KT CAVOK 23/11 Q1017
SBCF 280300Z 30002KT CAVOK 23/11 Q1017
SBCF 280200Z 00000KT CAVOK 24/11 Q1017
SBCF 280100Z 06007KT CAVOK 25/10 Q1017
SBCF 280000Z 00000KT CAVOK 27/10 Q1017
SBCF 272300Z 12002KT CAVOK 29/09 Q1016
SBCF 272200Z 07002KT CAVOK 29/10 Q1016
SBCF 272100Z 02003KT CAVOK 31/10 Q1015
SBCF 272000Z 14005KT 9999 FEW040 32/10 Q1014
SBCF 271900Z 15004KT 9999 FEW045 33/10 Q1014
SBCF 271800Z 27006KT 9999 FEW045 33/10 Q1014
SBCF 271700Z 06004KT 9999 FEW045 33/11 Q1015
SBCF 271600Z 26007KT CAVOK 32/11 Q1016
SBCF 271500Z 27006KT CAVOK 31/11 Q1018
SBCF 271400Z 03007KT CAVOK 27/13 Q1019
SBCF 271300Z 04005KT CAVOK 26/13 Q1018
SBCF 271200Z 03007KT CAVOK 24/13 Q1018
SBCF 271100Z 16002KT CAVOK 20/12 Q1017
SBCF 271000Z 16002KT CAVOK 18/13 Q1017
SBCF 270900Z 14002KT CAVOK 17/12 Q1017
SBCF 270800Z 13004KT CAVOK 18/12 Q1016
SBCF 270700Z 10002KT CAVOK 18/12 Q1016
SBCF 270600Z 05003KT CAVOK 20/12 Q1017
SBCF 270500Z 06003KT CAVOK 20/12 Q1017
SBCF 270400Z 07003KT CAVOK 20/12 Q1017
SBCF 270300Z 12003KT CAVOK 20/12 Q1018
SBCF 270200Z 13003KT CAVOK 21/12 Q1018
SBCF 270100Z 07007KT CAVOK 23/11 Q1018
SBCF 270000Z 03009KT CAVOK 24/11 Q1017
SBCF 262300Z 03010KT CAVOK 24/11 Q1017
SBCF 262200Z 03009KT CAVOK 25/12 Q1016
SBCF 262100Z 06008KT CAVOK 27/12 Q1016
SBCF 262000Z 07009KT CAVOK 29/11 Q1015
SBCF 261900Z 07005KT CAVOK 30/11 Q1015
SBCF 261800Z 14002KT CAVOK 30/10 Q1016
SBCF 261700Z 10004KT CAVOK 31/11 Q1017
SBCF 261600Z 15005KT 9999 FEW048 30/11 Q1018
SBCF 261500Z 32003KT CAVOK 28/11 Q1019
SBCF 261400Z 05003KT CAVOK 27/12 Q1020
SBCF 261300Z 05008KT CAVOK 25/12 Q1021
SBCF 261200Z 04008KT CAVOK 23/13 Q1021
SBCF 261100Z 15003KT CAVOK 20/14 Q1021
SBCF 261000Z 12004KT CAVOK 17/13 Q1019
SBCF 260900Z 12002KT CAVOK 16/13 Q1019